createdAt,value
2018-05-29T00:01:57.224Z,38.10
2018-05-29T00:04:27.943Z,38.08
2018-05-29T00:06:58.253Z,38.07
2018-05-29T00:09:28.718Z,38.15
2018-05-29T00:12:00.322Z,38.27
2018-05-29T00:14:30.899Z,38.27
2018-05-29T00:17:01.387Z,38.17
2018-05-29T00:19:31.891Z,37.94
2018-05-29T00:22:02.364Z,37.99
2018-05-29T00:24:33.225Z,37.93
2018-05-29T00:27:03.657Z,38.14
2018-05-29T00:29:34.167Z,38.02
2018-05-29T00:32:04.643Z,37.90
2018-05-29T00:34:34.968Z,38.14
2018-05-29T00:37:06.777Z,37.96
2018-05-29T00:39:37.394Z,38.14
2018-05-29T00:42:07.879Z,38.30
2018-05-29T00:44:38.678Z,38.35
2018-05-29T00:47:09.308Z,38.19
2018-05-29T00:49:39.869Z,38.54
2018-05-29T00:52:10.397Z,38.52
2018-05-29T00:54:40.641Z,38.33
2018-05-29T00:57:11.290Z,38.43
2018-05-29T00:59:41.914Z,38.36
2018-05-29T01:02:12.491Z,38.44
2018-05-29T01:04:43.086Z,38.55
2018-05-29T01:07:13.662Z,38.43
2018-05-29T01:09:46.610Z,38.39
2018-05-29T01:12:18.148Z,38.43
2018-05-29T01:14:48.659Z,38.60
2018-05-29T01:17:22.822Z,38.48
2018-05-29T01:19:53.294Z,38.67
2018-05-29T01:22:23.790Z,38.66
2018-05-29T01:24:54.290Z,38.56
2018-05-29T01:27:24.618Z,38.57
2018-05-29T01:29:55.366Z,38.85
2018-05-29T01:32:26.246Z,38.98
2018-05-29T01:34:56.707Z,38.94
2018-05-29T01:37:28.938Z,39.03
2018-05-29T01:39:59.522Z,39.25
2018-05-29T01:42:38.163Z,39.30
2018-05-29T01:45:08.934Z,39.36
2018-05-29T01:47:39.433Z,39.48
2018-05-29T01:50:11.305Z,39.43
2018-05-29T01:52:41.586Z,39.37
2018-05-29T01:55:12.054Z,39.19
2018-05-29T01:57:42.526Z,39.17
2018-05-29T02:00:14.591Z,39.36
2018-05-29T02:02:45.389Z,39.49
2018-05-29T02:05:15.893Z,39.61
2018-05-29T02:07:46.233Z,39.73
2018-05-29T02:10:17.227Z,39.94
2018-05-29T02:12:47.499Z,39.93
2018-05-29T02:15:17.751Z,40.01
2018-05-29T02:17:48.281Z,40.04
2018-05-29T02:20:18.838Z,40.22
2018-05-29T02:22:49.491Z,40.34
2018-05-29T02:25:20.085Z,40.39
2018-05-29T02:27:51.164Z,40.37
2018-05-29T02:30:21.691Z,40.22
2018-05-29T02:32:52.632Z,40.31
2018-05-29T02:35:23.654Z,40.36
2018-05-29T02:37:54.482Z,40.41
2018-05-29T02:40:24.733Z,40.73
2018-05-29T02:42:55.183Z,41.01
2018-05-29T02:45:25.721Z,40.93
2018-05-29T02:47:57.502Z,40.97
2018-05-29T02:50:27.783Z,41.00
2018-05-29T02:52:58.334Z,41.02
2018-05-29T02:55:29.205Z,40.81
2018-05-29T02:57:59.763Z,40.74
2018-05-29T03:00:30.237Z,40.69
2018-05-29T03:03:00.836Z,40.83
2018-05-29T03:05:31.378Z,40.99
2018-05-29T03:08:02.446Z,41.04
2018-05-29T03:10:33.110Z,41.11
2018-05-29T03:13:03.650Z,41.22
2018-05-29T03:15:34.526Z,41.35
2018-05-29T03:18:05.098Z,41.32
2018-05-29T03:20:35.557Z,41.28
2018-05-29T03:23:05.861Z,41.43
2018-05-29T03:25:36.137Z,41.46
2018-05-29T03:28:09.000Z,41.49
2018-05-29T03:30:39.585Z,41.50
2018-05-29T03:33:10.282Z,41.52
2018-05-29T03:35:40.805Z,41.43
2018-05-29T03:38:11.407Z,41.38
2018-05-29T03:40:42.173Z,41.31
2018-05-29T03:43:12.725Z,41.33
2018-05-29T03:45:43.240Z,41.25
2018-05-29T03:48:13.778Z,41.35
2018-05-29T03:50:44.268Z,41.31
2018-05-29T03:53:14.838Z,41.17
2018-05-29T03:55:45.409Z,40.90
2018-05-29T03:58:15.654Z,40.81
2018-05-29T04:00:46.562Z,40.74
2018-05-29T04:03:17.078Z,40.67
2018-05-29T04:05:47.611Z,40.42
2018-05-29T04:08:18.103Z,39.97
2018-05-29T04:10:48.438Z,39.47
2018-05-29T04:13:19.007Z,39.01
2018-05-29T04:15:49.589Z,38.44
2018-05-29T04:18:20.428Z,38.09
2018-05-29T04:20:50.987Z,37.70
2018-05-29T04:23:21.585Z,37.53
2018-05-29T04:25:52.648Z,37.12
2018-05-29T04:28:23.152Z,36.83
2018-05-29T04:30:53.759Z,36.26
2018-05-29T04:33:24.797Z,36.03
2018-05-29T04:35:55.344Z,35.95
2018-05-29T04:38:25.872Z,35.73
2018-05-29T04:40:56.361Z,35.37
2018-05-29T04:43:26.922Z,34.90
2018-05-29T04:45:57.743Z,34.56
2018-05-29T04:48:28.272Z,33.87
2018-05-29T04:50:58.750Z,33.51
2018-05-29T04:53:29.341Z,33.65
2018-05-29T04:55:59.907Z,33.31
2018-05-29T04:58:31.248Z,32.89
2018-05-29T05:01:01.754Z,32.30
2018-05-29T05:03:32.448Z,32.28
2018-05-29T05:06:03.274Z,32.66
2018-05-29T05:08:33.878Z,32.47
2018-05-29T05:11:04.438Z,31.79
2018-05-29T05:13:34.955Z,32.00
2018-05-29T05:16:05.295Z,32.12
2018-05-29T05:18:36.103Z,32.18
2018-05-29T05:21:06.673Z,32.00
2018-05-29T05:23:37.306Z,31.40
2018-05-29T05:26:08.282Z,31.83
2018-05-29T05:28:38.601Z,32.28
2018-05-29T05:31:09.190Z,32.76
2018-05-29T05:33:39.806Z,32.64
2018-05-29T05:36:10.433Z,32.39
2018-05-29T05:38:41.375Z,32.15
2018-05-29T05:41:11.878Z,32.09
2018-05-29T05:43:43.005Z,32.14
2018-05-29T05:46:13.646Z,31.77
2018-05-29T05:48:44.231Z,31.15
2018-05-29T05:51:16.229Z,30.97
2018-05-29T05:53:46.773Z,31.29
2018-05-29T05:56:17.563Z,31.80
2018-05-29T05:58:48.497Z,32.63
2018-05-29T06:01:19.078Z,33.15
2018-05-29T06:03:49.644Z,33.48
2018-05-29T06:06:20.695Z,33.33
2018-05-29T06:08:51.194Z,33.01
2018-05-29T06:11:22.074Z,32.20
2018-05-29T06:13:52.680Z,31.76
2018-05-29T06:16:23.117Z,30.59
2018-05-29T06:18:53.780Z,30.19
2018-05-29T06:21:25.330Z,29.70
2018-05-29T06:23:56.282Z,29.38
2018-05-29T06:26:26.819Z,29.14
2018-05-29T06:28:57.530Z,29.15
2018-05-29T06:31:28.738Z,28.96
2018-05-29T06:33:59.315Z,28.20
2018-05-29T06:36:34.207Z,27.90
2018-05-29T06:39:05.255Z,27.80
2018-05-29T06:41:35.659Z,27.96
2018-05-29T06:44:06.256Z,27.03
2018-05-29T06:46:36.691Z,26.61
2018-05-29T06:49:07.799Z,26.85
2018-05-29T06:51:38.434Z,26.76
2018-05-29T06:54:09.366Z,26.74
2018-05-29T06:56:40.425Z,27.32
2018-05-29T06:59:11.073Z,27.34
2018-05-29T07:01:42.450Z,28.12
2018-05-29T07:04:13.295Z,28.43
2018-05-29T07:06:43.830Z,28.04
2018-05-29T07:09:23.110Z,27.77
2018-05-29T07:11:53.411Z,26.38
2018-05-29T07:14:24.082Z,26.45
2018-05-29T07:16:54.613Z,25.69
2018-05-29T07:19:25.111Z,24.91
2018-05-29T07:21:55.618Z,24.86
2018-05-29T07:24:28.098Z,24.90
2018-05-29T07:27:00.087Z,24.89
2018-05-29T07:29:31.814Z,25.03
2018-05-29T07:32:02.539Z,24.40
2018-05-29T07:34:35.583Z,24.83
2018-05-29T07:37:06.087Z,24.88
2018-05-29T07:39:36.796Z,25.29
2018-05-29T07:42:07.906Z,25.39
2018-05-29T07:44:38.526Z,25.77
2018-05-29T07:47:09.138Z,25.58
2018-05-29T07:49:40.108Z,25.00
2018-05-29T07:52:10.729Z,24.45
2018-05-29T07:54:41.357Z,24.78
2018-05-29T07:57:12.228Z,25.06
2018-05-29T07:59:42.826Z,25.49
2018-05-29T08:02:14.654Z,25.17
2018-05-29T08:04:45.422Z,24.41
2018-05-29T08:07:16.101Z,23.74
2018-05-29T08:09:47.213Z,22.92
2018-05-29T08:12:17.594Z,22.58
2018-05-29T08:14:48.176Z,22.17
2018-05-29T08:17:19.091Z,21.62
2018-05-29T08:19:50.150Z,21.13
2018-05-29T08:22:20.503Z,21.22
2018-05-29T08:24:51.143Z,21.21
2018-05-29T08:27:21.692Z,21.21
2018-05-29T08:29:52.604Z,20.97
2018-05-29T08:32:23.159Z,20.86
2018-05-29T08:34:53.674Z,20.88
2018-05-29T08:37:24.297Z,20.83
2018-05-29T08:39:54.629Z,20.77
2018-05-29T08:42:25.526Z,20.89
2018-05-29T08:44:56.030Z,21.23
2018-05-29T08:47:26.572Z,21.02
2018-05-29T08:49:57.187Z,21.27
2018-05-29T08:52:27.781Z,21.68
2018-05-29T08:54:58.665Z,21.83
2018-05-29T08:57:29.242Z,21.95
2018-05-29T08:59:59.862Z,21.99
2018-05-29T09:02:30.407Z,21.39
2018-05-29T09:05:01.036Z,21.43
2018-05-29T09:07:31.896Z,21.46
2018-05-29T09:10:02.570Z,21.29
2018-05-29T09:12:33.075Z,21.49
2018-05-29T09:15:08.585Z,21.60
2018-05-29T09:17:39.508Z,21.31
2018-05-29T09:20:10.363Z,21.48
2018-05-29T09:22:40.624Z,21.59
2018-05-29T09:25:11.209Z,21.80
2018-05-29T09:27:42.097Z,21.71
2018-05-29T09:30:14.019Z,21.69
2018-05-29T09:32:44.566Z,22.05
2018-05-29T09:35:15.543Z,22.35
2018-05-29T09:37:46.211Z,22.53
2018-05-29T09:40:16.853Z,22.42
2018-05-29T09:42:47.637Z,22.60
2018-05-29T09:45:18.194Z,23.11
2018-05-29T09:47:49.002Z,23.33
2018-05-29T09:50:21.964Z,22.80
2018-05-29T09:52:52.505Z,22.79
2018-05-29T09:55:23.343Z,22.67
2018-05-29T09:57:53.696Z,22.48
2018-05-29T10:00:28.262Z,22.19
2018-05-29T10:02:59.158Z,21.76
2018-05-29T10:05:33.142Z,21.69
2018-05-29T10:08:03.991Z,22.45
2018-05-29T10:10:35.346Z,22.37
2018-05-29T10:13:05.917Z,22.22
2018-05-29T10:15:37.021Z,22.39
2018-05-29T10:18:07.567Z,22.34
2018-05-29T10:20:38.450Z,22.26
2018-05-29T10:23:09.112Z,21.83
2018-05-29T10:25:39.727Z,21.79
2018-05-29T10:28:10.377Z,22.73
2018-05-29T10:30:40.918Z,23.53
2018-05-29T10:33:12.829Z,23.77
2018-05-29T10:35:43.591Z,23.32
2018-05-29T10:38:14.362Z,23.43
2018-05-29T10:40:46.350Z,23.50
2018-05-29T10:43:16.881Z,23.49
2018-05-29T10:45:47.253Z,23.56
2018-05-29T10:48:17.850Z,22.98
2018-05-29T10:50:48.445Z,22.63
2018-05-29T10:53:19.583Z,23.04
2018-05-29T10:55:51.223Z,23.06
2018-05-29T10:58:21.810Z,22.66
2018-05-29T11:00:53.463Z,22.60
2018-05-29T11:03:24.416Z,23.43
2018-05-29T11:05:55.008Z,23.32
2018-05-29T11:08:25.545Z,23.06
2018-05-29T11:11:01.703Z,22.39
2018-05-29T11:13:33.745Z,22.58
2018-05-29T11:16:04.774Z,22.60
2018-05-29T11:18:36.078Z,22.21
2018-05-29T11:21:06.803Z,22.04
2018-05-29T11:23:37.589Z,22.30
2018-05-29T11:26:08.836Z,22.13
2018-05-29T11:28:41.331Z,21.69
2018-05-29T11:31:13.223Z,22.05
2018-05-29T11:33:44.525Z,23.09
2018-05-29T11:36:15.877Z,23.42
2018-05-29T11:38:47.882Z,23.71
2018-05-29T11:41:18.974Z,24.44
2018-05-29T11:43:49.503Z,25.03
2018-05-29T11:46:21.086Z,25.43
2018-05-29T11:48:51.634Z,25.22
2018-05-29T11:51:22.889Z,25.53
2018-05-29T11:53:55.827Z,26.80
2018-05-29T11:56:26.361Z,26.99
2018-05-29T11:58:56.905Z,27.08
2018-05-29T12:01:27.301Z,27.49
2018-05-29T12:03:57.807Z,27.26
2018-05-29T12:06:28.735Z,27.33
2018-05-29T12:08:59.298Z,27.25
2018-05-29T12:11:30.087Z,27.33
2018-05-29T12:14:00.672Z,27.47
2018-05-29T12:16:32.106Z,28.12
2018-05-29T12:19:04.087Z,28.40
2018-05-29T12:21:34.722Z,28.20
2018-05-29T12:24:05.365Z,28.13
2018-05-29T12:26:35.727Z,28.08
2018-05-29T12:29:06.099Z,28.56
2018-05-29T12:31:37.033Z,28.42
2018-05-29T12:34:07.344Z,28.38
2018-05-29T12:36:37.891Z,28.38
2018-05-29T12:39:09.114Z,27.85
2018-05-29T12:41:39.728Z,27.99
2018-05-29T12:44:10.364Z,27.54
2018-05-29T12:46:41.036Z,26.58
2018-05-29T12:49:11.694Z,26.09
2018-05-29T12:51:42.689Z,26.24
2018-05-29T12:54:13.477Z,26.70
2018-05-29T12:56:43.805Z,26.67
2018-05-29T12:59:15.031Z,26.60
2018-05-29T13:01:45.748Z,26.95
2018-05-29T13:04:16.114Z,27.58
2018-05-29T13:06:46.436Z,28.24
2018-05-29T13:09:17.546Z,28.64
2018-05-29T13:11:48.256Z,28.97
2018-05-29T13:14:18.863Z,29.42
2018-05-29T13:16:49.131Z,30.04
2018-05-29T13:19:19.812Z,29.37
2018-05-29T13:21:50.339Z,29.71
2018-05-29T13:24:21.406Z,29.96
2018-05-29T13:26:51.955Z,29.09
2018-05-29T13:29:22.246Z,29.03
2018-05-29T13:31:52.829Z,28.89
2018-05-29T13:36:51.347Z,28.43
2018-05-29T13:39:21.687Z,28.10
2018-05-29T13:41:52.215Z,27.83
2018-05-29T13:44:23.051Z,27.36
2018-05-29T13:46:53.506Z,28.08
2018-05-29T13:49:23.899Z,29.03
2018-05-29T13:51:54.535Z,29.06
2018-05-29T13:54:25.469Z,28.74
2018-05-29T13:56:56.306Z,28.39
2018-05-29T13:59:26.909Z,29.43
2018-05-29T14:01:57.166Z,30.31
2018-05-29T14:04:27.480Z,31.42
2018-05-29T14:06:58.075Z,32.39
2018-05-29T14:09:28.634Z,31.84
2018-05-29T14:14:36.269Z,32.89
2018-05-29T14:17:06.591Z,32.97
2018-05-29T14:19:38.456Z,33.04
2018-05-29T14:22:08.655Z,31.93
2018-05-29T14:24:38.945Z,31.28
2018-05-29T14:27:09.486Z,31.14
2018-05-29T14:29:41.398Z,32.01
2018-05-29T14:32:11.767Z,30.80
2018-05-29T14:34:42.458Z,30.13
2018-05-29T14:37:12.705Z,29.63
2018-05-29T14:39:43.013Z,29.41
2018-05-29T14:42:13.789Z,29.13
2018-05-29T14:44:45.157Z,29.23
2018-05-29T14:47:15.438Z,29.70
2018-05-29T14:49:45.933Z,30.20
2018-05-29T14:52:16.424Z,30.96
2018-05-29T14:54:48.121Z,32.14
2018-05-29T14:57:18.584Z,32.83
2018-05-29T14:59:50.068Z,34.27
2018-05-29T15:02:20.836Z,34.20
2018-05-29T15:04:51.374Z,34.61
2018-05-29T15:07:21.637Z,33.93
2018-05-29T15:09:51.974Z,34.22
2018-05-29T15:12:22.480Z,34.84
2018-05-29T15:14:53.360Z,35.30
2018-05-29T15:17:23.788Z,35.36
2018-05-29T15:19:54.361Z,35.28
2018-05-29T15:22:24.721Z,35.67
2018-05-29T15:24:55.030Z,36.81
2018-05-29T15:27:25.988Z,36.78
2018-05-29T15:29:56.178Z,36.92
2018-05-29T15:32:26.482Z,37.10
2018-05-29T15:34:56.783Z,36.87
2018-05-29T15:37:27.033Z,36.72
2018-05-29T15:39:58.982Z,36.87
2018-05-29T15:42:29.268Z,36.91
2018-05-29T15:44:59.917Z,36.85
2018-05-29T15:47:30.167Z,36.60
2018-05-29T15:50:00.459Z,36.45
2018-05-29T15:52:31.063Z,37.30
2018-05-29T15:55:01.475Z,37.86
2018-05-29T15:57:32.026Z,37.93
2018-05-29T16:00:04.390Z,37.24
2018-05-29T16:02:34.679Z,37.50
2018-05-29T16:05:04.887Z,37.02
2018-05-29T16:07:40.721Z,37.28
2018-05-29T16:10:11.029Z,37.08
2018-05-29T16:12:41.979Z,36.45
2018-05-29T16:15:14.211Z,36.43
2018-05-29T16:17:45.466Z,36.42
2018-05-29T16:20:17.177Z,36.73
2018-05-29T16:22:48.283Z,36.58
2018-05-29T16:25:19.299Z,36.76
2018-05-29T16:27:50.449Z,37.01
2018-05-29T16:30:20.694Z,37.68
2018-05-29T16:32:51.245Z,38.03
2018-05-29T16:35:21.715Z,38.52
2018-05-29T16:37:51.867Z,38.15
2018-05-29T16:40:22.617Z,37.97
2018-05-29T16:42:52.840Z,38.05
2018-05-29T16:45:23.097Z,38.04
2018-05-29T16:47:53.493Z,37.06
2018-05-29T16:50:24.271Z,36.18
2018-05-29T16:52:54.808Z,35.11
2018-05-29T16:55:25.036Z,34.98
2018-05-29T16:57:55.674Z,34.75
2018-05-29T17:00:26.000Z,35.65
2018-05-29T17:02:56.262Z,36.34
2018-05-29T17:05:26.956Z,36.43
2018-05-29T17:07:57.191Z,36.20
2018-05-29T17:10:27.997Z,35.93
2018-05-29T17:12:58.281Z,34.89
2018-05-29T17:15:29.049Z,34.60
2018-05-29T17:18:00.091Z,34.83
2018-05-29T17:20:30.652Z,34.89
2018-05-29T17:23:00.908Z,34.93
2018-05-29T17:25:31.881Z,34.96
2018-05-29T17:28:02.197Z,34.97
2018-05-29T17:30:32.710Z,34.84
2018-05-29T17:33:02.914Z,35.06
2018-05-29T17:35:33.135Z,34.59
2018-05-29T17:38:03.451Z,34.63
2018-05-29T17:40:33.658Z,34.87
2018-05-29T17:43:04.363Z,35.64
2018-05-29T17:45:34.550Z,35.50
2018-05-29T17:48:04.919Z,35.25
2018-05-29T17:50:35.455Z,35.13
2018-05-29T17:53:05.738Z,34.68
2018-05-29T17:55:36.014Z,34.41
2018-05-29T17:58:06.570Z,34.60
2018-05-29T18:00:36.745Z,34.42
2018-05-29T18:03:07.033Z,35.09
2018-05-29T18:05:37.319Z,35.38
2018-05-29T18:08:07.521Z,35.44
2018-05-29T18:10:38.063Z,35.29
2018-05-29T18:13:08.354Z,35.36
2018-05-29T18:15:38.534Z,35.58
2018-05-29T18:18:08.813Z,35.46
2018-05-29T18:20:38.978Z,35.72
2018-05-29T18:23:09.530Z,35.43
2018-05-29T18:25:39.794Z,35.65
2018-05-29T18:28:09.958Z,36.07
2018-05-29T18:30:40.435Z,35.67
2018-05-29T18:33:10.681Z,36.05
2018-05-29T18:35:40.860Z,36.57
2018-05-29T18:38:11.148Z,37.06
2018-05-29T18:40:41.626Z,36.79
2018-05-29T18:43:12.232Z,36.68
2018-05-29T18:45:42.738Z,36.83
2018-05-29T18:48:12.930Z,37.02
2018-05-29T18:50:44.192Z,37.45
2018-05-29T18:53:14.395Z,37.71
2018-05-29T18:55:44.580Z,37.57
2018-05-29T18:58:14.781Z,37.55
2018-05-29T19:00:45.097Z,37.17
2018-05-29T19:03:17.382Z,35.48
2018-05-29T19:05:47.583Z,34.79
2018-05-29T19:08:17.773Z,35.18
2018-05-29T19:10:47.950Z,36.12
2018-05-29T19:13:18.247Z,36.72
2018-05-29T19:15:50.627Z,37.59
2018-05-29T19:18:22.695Z,37.84
2018-05-29T19:20:53.810Z,37.56
2018-05-29T19:23:24.102Z,37.72
2018-05-29T19:25:55.421Z,38.34
2018-05-29T19:28:25.962Z,38.85
2018-05-29T19:30:56.183Z,38.61
2018-05-29T19:33:28.361Z,39.19
2018-05-29T19:35:59.960Z,39.32
2018-05-29T19:38:32.376Z,39.38
2018-05-29T19:41:02.953Z,39.39
2018-05-29T19:43:35.062Z,39.66
2018-05-29T19:46:07.115Z,40.07
2018-05-29T19:48:37.622Z,40.40
2018-05-29T19:51:07.976Z,40.90
2018-05-29T19:53:38.362Z,41.00
2018-05-29T19:56:08.633Z,41.15
2018-05-29T19:58:38.923Z,41.45
2018-05-29T20:01:10.690Z,41.40
2018-05-29T20:03:41.045Z,41.71
2018-05-29T20:06:11.265Z,42.00
2018-05-29T20:08:41.781Z,42.35
2018-05-29T20:11:12.079Z,42.91
2018-05-29T20:13:42.339Z,42.55
2018-05-29T20:16:12.591Z,42.80
2018-05-29T20:18:42.887Z,42.96
2018-05-29T20:21:13.954Z,43.31
2018-05-29T20:23:45.119Z,43.26
2018-05-29T20:26:15.424Z,43.57
2018-05-29T20:28:45.576Z,43.68
2018-05-29T20:31:16.155Z,43.82
2018-05-29T20:33:46.914Z,44.30
2018-05-29T20:36:18.289Z,44.50
2018-05-29T20:38:48.468Z,44.23
2018-05-29T20:41:20.090Z,44.24
2018-05-29T20:43:51.228Z,44.35
2018-05-29T20:46:21.637Z,44.31
2018-05-29T20:48:52.349Z,44.43
2018-05-29T20:51:22.514Z,44.84
2018-05-29T20:53:54.043Z,45.02
2018-05-29T20:56:24.277Z,45.27
2018-05-29T20:58:55.194Z,45.44
2018-05-29T21:01:25.942Z,45.39
2018-05-29T21:03:56.108Z,45.42
2018-05-29T21:06:26.350Z,45.63
2018-05-29T21:08:56.535Z,45.88
2018-05-29T21:11:26.790Z,45.92
2018-05-29T21:13:58.315Z,46.04
2018-05-29T21:16:28.458Z,46.41
2018-05-29T21:18:59.854Z,46.73
2018-05-29T21:21:30.014Z,46.64
2018-05-29T21:24:01.087Z,46.68
2018-05-29T21:26:31.576Z,46.39
2018-05-29T21:29:01.761Z,46.19
2018-05-29T21:31:31.966Z,46.18
2018-05-29T21:34:03.517Z,46.53
2018-05-29T21:36:33.786Z,46.62
2018-05-29T21:39:04.239Z,46.78
2018-05-29T21:41:34.694Z,46.93
2018-05-29T21:44:04.943Z,47.17
2018-05-29T21:46:35.889Z,47.26
2018-05-29T21:49:06.206Z,47.24
2018-05-29T21:51:36.690Z,47.44
2018-05-29T21:54:06.882Z,47.52
2018-05-29T21:56:37.229Z,47.70
2018-05-29T21:59:07.731Z,47.95
2018-05-29T22:01:38.632Z,48.17
2018-05-29T22:04:08.836Z,48.32
2018-05-29T22:06:39.189Z,48.81
2018-05-29T22:09:09.639Z,48.89
2018-05-29T22:11:40.409Z,48.96
2018-05-29T22:14:10.697Z,48.81
2018-05-29T22:16:40.950Z,48.96
2018-05-29T22:19:11.612Z,49.19
2018-05-29T22:21:41.900Z,49.07
2018-05-29T22:24:12.316Z,49.19
2018-05-29T22:26:42.612Z,49.16
2018-05-29T22:29:12.877Z,48.72
2018-05-29T22:31:43.496Z,48.48
2018-05-29T22:34:13.745Z,49.02
2018-05-29T22:36:44.064Z,49.02
2018-05-29T22:39:14.644Z,48.67
2018-05-29T22:41:45.424Z,48.88
2018-05-29T22:44:18.610Z,49.03
2018-05-29T22:46:49.067Z,48.62
2018-05-29T22:49:19.865Z,48.24
2018-05-29T22:51:50.712Z,48.08
2018-05-29T22:54:21.097Z,48.26
2018-05-29T22:56:51.369Z,48.56
2018-05-29T22:59:23.433Z,48.78
2018-05-29T23:01:53.715Z,48.71
2018-05-29T23:04:24.604Z,48.74
2018-05-29T23:06:55.096Z,49.18
2018-05-29T23:09:25.648Z,48.96
2018-05-29T23:11:57.526Z,48.78
2018-05-29T23:14:28.196Z,49.18
2018-05-29T23:17:00.887Z,49.63
2018-05-29T23:19:31.571Z,49.76
2018-05-29T23:22:02.355Z,50.10
2018-05-29T23:24:32.744Z,50.22
2018-05-29T23:27:03.508Z,50.27
2018-05-29T23:29:35.525Z,50.49
2018-05-29T23:32:07.125Z,50.21
2018-05-29T23:34:37.771Z,50.41
2018-05-29T23:37:08.679Z,50.00
2018-05-29T23:39:39.321Z,50.07
2018-05-29T23:42:09.976Z,49.88
2018-05-29T23:44:41.021Z,49.83
2018-05-29T23:47:11.661Z,50.54
2018-05-29T23:49:42.636Z,50.69
2018-05-29T23:52:13.246Z,50.40
2018-05-29T23:54:43.984Z,50.09
2018-05-29T23:57:16.655Z,49.90
2018-05-29T23:59:47.189Z,49.90
